Time;durP1;ratioP1;P1;durP2;ratioP2;P2;SDS_P1;SDS_P2;PMS_P1;PMS_P2;Temp;Humidity;BMP_temperature;BMP_pressure;BME280_temperature;BME280_humidity;BME280_pressure;Samples;Min_cycle;Max_cycle;Signal;HPM_P1;HPM_P2
2022/04/03 00:02:03;;;;;;;8.57;3.13;;;;;;;-1.44;100.00;97231.31;6062991;23;20037;-66
2022/04/03 00:04:29;;;;;;;8.48;3.17;;;;;;;-1.31;100.00;97264.56;6039101;23;20033;-64
2022/04/03 00:06:55;;;;;;;8.45;3.00;;;;;;;-1.34;100.00;97272.75;6064720;23;20105;-63
2022/04/03 00:09:21;;;;;;;9.98;3.00;;;;;;;-1.38;100.00;97276.66;6016136;23;20086;-64
2022/04/03 00:11:47;;;;;;;9.35;3.67;;;;;;;-1.50;100.00;97245.94;6065073;23;20034;-64
2022/04/03 00:14:15;;;;;;;8.93;3.35;;;;;;;-1.38;100.00;97265.22;6039881;23;20050;-64
2022/04/03 00:16:41;;;;;;;10.32;3.60;;;;;;;-1.47;100.00;97250.97;6039174;23;20422;-64
2022/04/03 00:19:08;;;;;;;9.75;3.92;;;;;;;-1.34;100.00;97270.13;6065068;23;20102;-65
2022/04/03 00:21:35;;;;;;;8.77;2.83;;;;;;;-1.42;100.00;97269.97;6015543;23;20018;-64
2022/04/03 00:24:01;;;;;;;9.52;3.88;;;;;;;-1.37;100.00;97261.59;6062560;23;20365;-64
2022/04/03 00:26:27;;;;;;;9.80;4.68;;;;;;;-1.44;100.00;97263.94;5991606;23;20038;-63
2022/04/03 00:28:53;;;;;;;9.30;4.00;;;;;;;-1.38;100.00;97254.63;6064681;23;20452;-64
2022/04/03 00:31:19;;;;;;;10.15;4.57;;;;;;;-1.38;100.00;97258.13;6039433;23;20022;-63
2022/04/03 00:33:45;;;;;;;10.32;4.75;;;;;;;-1.38;100.00;97257.28;6039209;23;20054;-65
2022/04/03 00:36:11;;;;;;;10.52;4.25;;;;;;;-1.38;100.00;97250.16;6064477;23;20029;-65
2022/04/03 00:38:37;;;;;;;9.82;4.57;;;;;;;-1.35;100.00;97249.91;6062672;23;20082;-64
2022/04/03 00:41:03;;;;;;;9.20;4.03;;;;;;;-1.39;100.00;97243.19;6015624;23;20026;-65
2022/04/03 00:43:29;;;;;;;9.35;4.15;;;;;;;-1.40;100.00;97245.97;6015399;23;20050;-64
2022/04/03 00:45:55;;;;;;;8.82;4.03;;;;;;;-1.39;100.00;97243.19;6015311;23;20026;-64
2022/04/03 00:48:22;;;;;;;11.02;4.57;;;;;;;-1.37;100.00;97240.41;6015192;23;20038;-64
2022/04/03 00:50:48;;;;;;;9.77;4.35;;;;;;;-1.36;100.00;97245.56;6015476;23;20028;-64
2022/04/03 00:53:14;;;;;;;10.55;4.40;;;;;;;-1.40;100.00;97236.19;6039021;23;20067;-63
2022/04/03 00:55:42;;;;;;;10.20;4.25;;;;;;;-1.41;100.00;97245.13;6062421;23;20410;-64
2022/04/03 00:58:09;;;;;;;9.68;3.95;;;;;;;-1.51;100.00;97228.38;6064316;23;20357;-64
2022/04/03 01:00:35;;;;;;;8.77;3.92;;;;;;;-1.49;100.00;97232.56;6038643;23;20027;-63
2022/04/03 01:03:02;;;;;;;10.05;4.63;;;;;;;-1.47;100.00;97229.78;6062511;23;20034;-63
2022/04/03 01:05:28;;;;;;;9.68;4.10;;;;;;;-1.40;100.00;97233.56;6038581;23;20505;-64
2022/04/03 01:07:54;;;;;;;10.68;4.15;;;;;;;-1.47;100.00;97227.13;6039205;23;20034;-64
2022/04/03 01:10:21;;;;;;;10.30;4.22;;;;;;;-1.52;100.00;97226.69;6064552;23;20067;-65
2022/04/03 01:12:46;;;;;;;9.43;4.57;;;;;;;-1.50;100.00;97233.56;6062633;23;20337;-63
2022/04/03 01:15:17;;;;;;;9.65;4.05;;;;;;;-1.52;100.00;97229.34;6014965;23;20023;-61
2022/04/03 01:17:43;;;;;;;9.70;4.13;;;;;;;-1.50;100.00;97232.69;6064047;23;20033;-64
2022/04/03 01:20:10;;;;;;;9.73;4.32;;;;;;;-1.50;100.00;97235.34;6015326;23;20030;-63
2022/04/03 01:22:36;;;;;;;10.02;4.10;;;;;;;-1.62;100.00;97213.41;6038909;23;20038;-63
2022/04/03 01:25:03;;;;;;;9.85;3.75;;;;;;;-1.47;100.00;97229.78;6014866;23;20031;-62
2022/04/03 01:27:29;;;;;;;8.93;3.83;;;;;;;-1.59;100.00;97220.28;6064317;23;20440;-63
2022/04/03 01:29:57;;;;;;;10.65;4.53;;;;;;;-1.51;100.00;97229.19;6038779;23;20019;-63
2022/04/03 01:32:24;;;;;;;10.23;3.83;;;;;;;-1.47;100.00;97227.13;6015031;23;20027;-64
2022/04/03 01:34:50;;;;;;;9.50;4.10;;;;;;;-1.53;100.00;97227.69;6064312;23;20018;-63
2022/04/03 01:37:16;;;;;;;10.00;4.22;;;;;;;-1.48;100.00;97217.50;6062593;23;20051;-65
2022/04/03 01:39:43;;;;;;;10.02;4.00;;;;;;;-1.48;100.00;97228.09;6062734;23;20023;-64
2022/04/03 01:42:09;;;;;;;9.52;3.85;;;;;;;-1.50;100.00;97214.13;6062659;23;20075;-63
2022/04/03 01:44:35;;;;;;;8.88;3.53;;;;;;;-1.54;100.00;97212.75;6062321;23;20365;-63
2022/04/03 01:47:01;;;;;;;9.27;3.53;;;;;;;-1.49;100.00;97221.13;6038571;23;20031;-64
2022/04/03 01:49:26;;;;;;;9.02;3.70;;;;;;;-1.57;100.00;97213.00;6064153;23;20019;-63
2022/04/03 01:51:52;;;;;;;10.60;4.97;;;;;;;-1.53;100.00;97230.34;6015096;23;20139;-65
2022/04/03 01:54:18;;;;;;;7.93;3.20;;;;;;;-1.56;100.00;97215.53;6015146;23;20065;-61
2022/04/03 01:56:45;;;;;;;9.60;3.83;;;;;;;-1.55;100.00;97216.38;6064088;23;20429;-63
2022/04/03 01:59:10;;;;;;;9.48;4.15;;;;;;;-1.50;100.00;97222.09;6039102;23;20019;-64
2022/04/03 02:01:36;;;;;;;8.95;3.88;;;;;;;-1.51;100.00;97218.59;6014979;23;20107;-64
2022/04/03 02:04:03;;;;;;;10.40;4.03;;;;;;;-1.52;100.00;97216.09;6064210;23;20340;-63
2022/04/03 02:06:31;;;;;;;9.90;3.42;;;;;;;-1.65;100.00;97189.00;6062293;23;20053;-63
2022/04/03 02:08:58;;;;;;;10.07;3.92;;;;;;;-1.56;100.00;97198.81;6038574;23;20023;-63
2022/04/03 02:11:24;;;;;;;8.70;3.67;;;;;;;-1.51;100.00;97218.59;6015224;23;20031;-64
2022/04/03 02:13:50;;;;;;;9.35;3.35;;;;;;;-1.60;100.00;97205.34;6014385;23;20453;-62
2022/04/03 02:16:17;;;;;;;9.38;3.53;;;;;;;-1.54;100.00;97215.38;6014861;23;20472;-63
2022/04/03 02:18:42;;;;;;;8.20;3.70;;;;;;;-1.56;100.00;97207.59;6014979;23;20553;-64
2022/04/03 02:21:08;;;;;;;8.85;3.95;;;;;;;-1.55;100.00;97205.78;6062019;23;20094;-64
2022/04/03 02:23:34;;;;;;;8.95;3.83;;;;;;;-1.65;100.00;97187.19;6063776;23;20031;-67
2022/04/03 02:26:00;;;;;;;8.75;3.67;;;;;;;-1.57;100.00;97202.41;5993714;23;20410;-63
2022/04/03 02:28:26;;;;;;;9.25;4.20;;;;;;;-1.63;100.00;97187.09;6040223;23;20030;-63
2022/04/03 02:30:52;;;;;;;9.90;3.92;;;;;;;-1.63;100.00;97187.91;6016754;23;20030;-64
2022/04/03 02:33:18;;;;;;;8.52;3.92;;;;;;;-1.66;100.00;97193.47;6040602;23;20034;-64
2022/04/03 02:35:44;;;;;;;10.15;4.40;;;;;;;-1.75;100.00;97175.78;6040132;23;20077;-64
2022/04/03 02:38:10;;;;;;;10.02;4.50;;;;;;;-1.65;100.00;97199.59;6065308;23;20049;-65
2022/04/03 02:40:35;;;;;;;10.25;3.75;;;;;;;-1.75;100.00;97178.41;6016557;23;20031;-64
2022/04/03 02:43:02;;;;;;;8.45;3.33;;;;;;;-1.66;100.00;97205.88;6066519;23;20458;-64
2022/04/03 02:45:28;;;;;;;8.55;3.65;;;;;;;-1.88;100.00;97159.28;6066401;23;20225;-63
2022/04/03 02:47:55;;;;;;;8.02;3.67;;;;;;;-1.65;100.00;97199.59;6040359;23;20757;-64
2022/04/03 02:50:22;;;;;;;8.57;3.65;;;;;;;-1.67;100.00;97198.94;6066024;23;20441;-62
2022/04/03 02:52:51;;;;;;;9.20;3.78;;;;;;;-1.69;100.00;97191.09;6040033;23;20483;-64
2022/04/03 02:55:19;;;;;;;9.15;3.55;;;;;;;-1.64;100.00;97201.31;6039647;23;20085;-63
2022/04/03 02:57:45;;;;;;;8.65;3.80;;;;;;;-1.67;100.00;97204.22;6040001;23;20037;-64
2022/04/03 03:00:14;;;;;;;10.13;3.92;;;;;;;-1.68;100.00;97206.03;6039862;23;20076;-65
2022/04/03 03:02:42;;;;;;;10.30;3.83;;;;;;;-1.66;100.00;97197.94;6063503;23;20026;-62
2022/04/03 03:05:08;;;;;;;8.02;3.60;;;;;;;-1.65;100.00;97210.19;6065678;23;20070;-64
2022/04/03 03:07:38;;;;;;;9.48;3.83;;;;;;;-1.75;100.00;97205.72;6040190;23;20083;-64
2022/04/03 03:10:06;;;;;;;8.77;3.72;;;;;;;-1.63;100.00;97213.56;5993040;23;20026;-64
2022/04/03 03:12:32;;;;;;;8.68;3.72;;;;;;;-1.60;100.00;97216.78;6065174;23;20102;-65
2022/04/03 03:14:57;;;;;;;8.23;3.55;;;;;;;-1.63;100.00;97218.88;6015871;23;20023;-62
2022/04/03 03:17:23;;;;;;;10.77;3.90;;;;;;;-1.59;100.00;97220.28;6065086;23;20268;-63
2022/04/03 03:19:49;;;;;;;10.40;4.10;;;;;;;-1.71;100.00;97206.31;6016126;23;20038;-65
2022/04/03 03:22:15;;;;;;;9.75;3.67;;;;;;;-1.63;100.00;97216.22;6040439;23;20440;-64
2022/04/03 03:24:42;;;;;;;8.38;3.50;;;;;;;-1.60;100.00;97218.59;6064199;23;20046;-62
2022/04/03 03:27:08;;;;;;;9.10;3.70;;;;;;;-1.73;100.00;97193.19;6040583;23;20023;-63
2022/04/03 03:29:34;;;;;;;8.93;3.60;;;;;;;-1.59;100.00;97220.28;6066701;23;20051;-63
2022/04/03 03:32:00;;;;;;;9.32;3.90;;;;;;;-1.61;100.00;97227.50;6066657;23;20026;-63
2022/04/03 03:34:26;;;;;;;8.55;3.10;;;;;;;-1.59;100.00;97226.41;6040970;23;20481;-64
2022/04/03 03:36:52;;;;;;;7.75;3.28;;;;;;;-1.58;100.00;97227.22;6016514;23;20458;-62
2022/04/03 03:39:18;;;;;;;9.68;3.50;;;;;;;-1.59;100.00;97226.41;6039645;23;20197;-63
2022/04/03 03:41:44;;;;;;;9.07;3.22;;;;;;;-1.55;100.00;97229.63;6063439;23;20045;-64
2022/04/03 03:44:10;;;;;;;7.80;3.25;;;;;;;-1.50;99.90;97222.09;6016058;23;20031;-64
2022/04/03 03:46:37;;;;;;;10.13;3.45;;;;;;;-1.48;99.96;97233.41;6063732;23;20097;-63
2022/04/03 03:49:03;;;;;;;7.63;2.70;;;;;;;-1.51;99.74;97228.38;6063473;23;20334;-64
2022/04/03 03:51:29;;;;;;;8.68;2.75;;;;;;;-1.48;99.28;97236.88;6039210;23;20357;-64
2022/04/03 03:53:55;;;;;;;9.82;3.28;;;;;;;-1.44;99.40;97229.50;6016240;23;20027;-64
2022/04/03 03:56:21;;;;;;;9.20;3.00;;;;;;;-1.41;98.25;97239.84;6015923;23;20496;-64
2022/04/03 03:58:47;;;;;;;7.35;2.92;;;;;;;-1.41;98.21;97234.53;6063534;23;20022;-64
2022/04/03 04:01:13;;;;;;;7.88;3.17;;;;;;;-1.40;98.15;97241.50;6039372;23;20033;-64
2022/04/03 04:03:38;;;;;;;9.95;2.70;;;;;;;-1.35;97.08;97234.00;6064947;23;20321;-64
2022/04/03 04:06:05;;;;;;;7.32;2.45;;;;;;;-1.31;96.36;97240.69;6039427;23;20477;-64
2022/04/03 04:08:30;;;;;;;8.02;2.85;;;;;;;-1.33;96.12;97247.94;6064194;23;20531;-63
2022/04/03 04:10:58;;;;;;;7.78;2.63;;;;;;;-1.22;96.30;97245.16;6016266;23;20023;-64
2022/04/03 04:13:24;;;;;;;9.05;3.05;;;;;;;-1.03;94.70;97251.47;6015339;23;20110;-65
2022/04/03 04:15:50;;;;;;;7.30;2.60;;;;;;;-0.88;94.02;97255.38;6039401;23;20127;-63
2022/04/03 04:18:16;;;;;;;6.78;2.50;;;;;;;-0.93;93.78;97262.09;6039324;23;20421;-64
2022/04/03 04:20:42;;;;;;;10.85;2.67;;;;;;;-0.88;93.27;97263.34;6039437;23;20086;-64
2022/04/03 04:23:09;;;;;;;7.50;2.92;;;;;;;-0.88;92.56;97273.94;6039356;23;20098;-64
2022/04/03 04:25:35;;;;;;;7.28;2.53;;;;;;;-0.83;92.01;97271.72;6039140;23;20035;-64
2022/04/03 04:28:01;;;;;;;8.23;2.60;;;;;;;-0.87;92.16;97259.72;5992260;23;20049;-63
2022/04/03 04:30:27;;;;;;;7.95;2.53;;;;;;;-0.95;91.88;97267.53;6038566;23;20027;-63
2022/04/03 04:32:53;;;;;;;7.50;2.78;;;;;;;-0.92;91.79;97267.25;6039810;23;20030;-63
2022/04/03 04:35:19;;;;;;;7.57;2.63;;;;;;;-0.92;91.80;97267.25;6039075;23;20026;-63
2022/04/03 04:37:44;;;;;;;7.65;2.50;;;;;;;-1.04;91.17;97265.72;6038837;23;20018;-62
2022/04/03 04:40:12;;;;;;;8.55;2.50;;;;;;;-0.90;91.57;97278.56;6039185;23;20086;-63
2022/04/03 04:42:38;;;;;;;7.63;2.65;;;;;;;-0.91;90.82;97290.16;6063053;23;20053;-63
2022/04/03 04:45:07;;;;;;;7.55;2.53;;;;;;;-0.92;92.02;97283.16;6015477;23;20026;-65
2022/04/03 04:47:39;;;;;;;8.07;2.70;;;;;;;-0.96;91.80;97265.84;6039220;23;20445;-62
2022/04/03 04:50:10;;;;;;;7.60;2.60;;;;;;;-0.84;90.93;97291.28;6015472;23;20346;-64
2022/04/03 04:52:36;;;;;;;7.38;2.80;;;;;;;-0.82;91.19;97280.53;6063127;23;20130;-63
2022/04/03 04:55:05;;;;;;;8.07;2.40;;;;;;;-0.85;90.46;97286.94;6038477;23;20362;-65
2022/04/03 04:57:32;;;;;;;7.00;2.47;;;;;;;-0.81;90.68;97290.97;6038864;23;20026;-64
2022/04/03 05:00:03;;;;;;;6.97;2.40;;;;;;;-0.82;90.62;97291.97;6038873;23;20137;-64
2022/04/03 05:02:29;;;;;;;6.40;2.53;;;;;;;-0.98;90.64;97294.34;6038853;23;20090;-65
2022/04/03 05:04:55;;;;;;;6.60;2.40;;;;;;;-0.67;90.84;97304.81;6014772;23;20061;-65
2022/04/03 05:07:22;;;;;;;9.05;2.65;;;;;;;-0.70;90.15;97291.81;6038938;23;20038;-64
2022/04/03 05:09:49;;;;;;;8.52;2.70;;;;;;;-0.55;90.16;97306.34;6015365;23;20075;-65
2022/04/03 05:12:15;;;;;;;8.30;2.88;;;;;;;-0.61;90.15;97314.88;6015568;23;20023;-64
2022/04/03 05:14:41;;;;;;;6.65;2.40;;;;;;;-0.50;89.93;97325.38;6038438;23;20142;-64
2022/04/03 05:17:08;;;;;;;9.02;3.13;;;;;;;-0.68;89.34;97289.88;5992223;23;20026;-63
2022/04/03 05:19:36;;;;;;;7.00;2.25;;;;;;;-0.50;90.10;97320.06;6039059;23;20026;-64
2022/04/03 05:22:02;;;;;;;8.98;2.85;;;;;;;-0.21;90.15;97316.56;6014868;23;20023;-66
2022/04/03 05:24:28;;;;;;;8.45;2.92;;;;;;;-0.27;89.51;97321.44;6038442;23;20037;-65
2022/04/03 05:26:54;;;;;;;8.55;3.40;;;;;;;-0.57;89.59;97305.66;6038925;23;20026;-64
2022/04/03 05:29:20;;;;;;;9.57;2.97;;;;;;;-0.30;90.27;97332.31;6038528;23;20059;-64
2022/04/03 05:31:46;;;;;;;7.38;3.05;;;;;;;-0.27;88.93;97325.91;6014937;23;20034;-65
2022/04/03 05:34:12;;;;;;;9.48;2.97;;;;;;;0.02;89.35;97325.88;6015318;23;20393;-65
2022/04/03 05:36:39;;;;;;;7.40;2.75;;;;;;;-0.01;87.52;97321.66;6039470;23;20031;-65
2022/04/03 05:39:06;;;;;;;7.43;2.70;;;;;;;0.02;87.17;97323.22;6039527;23;20045;-66
2022/04/03 05:41:33;;;;;;;7.88;2.97;;;;;;;0.04;87.33;97329.25;6063435;23;20042;-64
2022/04/03 05:44:00;;;;;;;8.63;3.10;;;;;;;0.10;87.28;97333.13;6065047;23;20023;-65
2022/04/03 05:46:25;;;;;;;9.38;3.45;;;;;;;0.13;86.98;97346.97;6016060;23;20050;-64
2022/04/03 05:48:51;;;;;;;9.02;3.05;;;;;;;0.26;87.16;97343.13;6015591;23;20035;-69
2022/04/03 05:51:17;;;;;;;7.68;2.53;;;;;;;0.32;85.46;97347.88;6011132;23;20038;-65
2022/04/03 05:53:43;;;;;;;7.30;2.63;;;;;;;0.05;85.38;97346.84;6010834;23;20126;-65
2022/04/03 05:56:09;;;;;;;8.82;3.30;;;;;;;0.06;85.60;97343.19;6011041;23;20055;-65
2022/04/03 05:58:36;;;;;;;8.07;2.67;;;;;;;-0.02;84.99;97340.41;6012208;23;20045;-64
2022/04/03 06:01:02;;;;;;;10.63;3.22;;;;;;;0.10;84.96;97354.38;6038696;23;20063;-68
2022/04/03 06:03:28;;;;;;;8.13;2.90;;;;;;;0.17;84.41;97345.69;5989481;23;20479;-64
2022/04/03 06:05:54;;;;;;;8.88;2.83;;;;;;;0.17;84.61;97335.06;6035816;23;20330;-64
2022/04/03 06:08:20;;;;;;;7.28;2.60;;;;;;;0.36;83.43;97362.56;6035758;23;20102;-64
2022/04/03 06:10:45;;;;;;;9.10;2.92;;;;;;;0.30;83.16;97360.50;6012086;23;20092;-64
2022/04/03 06:13:13;;;;;;;7.88;3.30;;;;;;;0.06;82.41;97369.75;6012077;23;20034;-65
2022/04/03 06:15:42;;;;;;;7.78;2.75;;;;;;;0.12;83.11;97382.47;6011875;23;20091;-64
2022/04/03 06:18:10;;;;;;;8.98;2.95;;;;;;;0.28;82.42;97378.41;5965497;23;20062;-65
2022/04/03 06:20:36;;;;;;;7.65;2.97;;;;;;;0.33;82.32;97378.78;6035156;23;20027;-66
2022/04/03 06:23:03;;;;;;;9.07;3.40;;;;;;;0.19;82.45;97380.94;6008219;23;20353;-56
2022/04/03 06:25:29;;;;;;;6.63;2.35;;;;;;;0.27;83.93;97382.88;5999152;23;20034;-64
2022/04/03 06:27:55;;;;;;;8.80;3.05;;;;;;;0.19;82.19;97386.25;6031684;23;20149;-64
2022/04/03 06:30:22;;;;;;;8.23;2.97;;;;;;;0.18;82.23;97395.22;6008293;23;20706;-65
2022/04/03 06:32:48;;;;;;;8.30;3.10;;;;;;;0.08;82.08;97397.03;5985176;23;20116;-65
2022/04/03 06:35:14;;;;;;;7.93;2.80;;;;;;;0.03;80.48;97406.38;6007758;23;20035;-65
2022/04/03 06:37:40;;;;;;;9.48;2.78;;;;;;;0.11;80.47;97383.47;5985287;23;20181;-65
2022/04/03 06:40:07;;;;;;;10.93;2.88;;;;;;;0.66;78.49;97420.84;6007915;23;20033;-65
2022/04/03 06:42:34;;;;;;;10.70;2.90;;;;;;;0.82;77.77;97408.75;6031974;23;20022;-65
2022/04/03 06:45:00;;;;;;;7.25;2.75;;;;;;;0.71;76.05;97413.25;6031521;23;20065;-65
2022/04/03 06:47:30;;;;;;;7.60;2.70;;;;;;;0.89;78.34;97425.81;5985014;23;20132;-65
2022/04/03 06:49:56;;;;;;;7.90;2.75;;;;;;;0.68;75.91;97423.34;6008796;23;20087;-65
2022/04/03 06:52:22;;;;;;;10.45;3.10;;;;;;;0.65;76.85;97435.09;6031905;23;20023;-66
2022/04/03 06:54:48;;;;;;;7.25;2.38;;;;;;;0.26;76.11;97433.47;5984390;23;20031;-66
2022/04/03 06:57:14;;;;;;;7.05;2.63;;;;;;;0.49;77.24;97440.19;5983748;23;20130;-66
2022/04/03 06:59:42;;;;;;;7.80;2.72;;;;;;;0.56;75.97;97440.44;5960947;23;20114;-66
2022/04/03 07:02:07;;;;;;;8.18;2.78;;;;;;;0.65;77.90;97448.38;5985257;23;20023;-66
2022/04/03 07:04:34;;;;;;;8.07;2.63;;;;;;;0.96;76.76;97448.19;6008156;23;20034;-65
2022/04/03 07:07:00;;;;;;;8.50;2.40;;;;;;;0.55;75.54;97422.81;6033415;23;20481;-66
2022/04/03 07:09:26;;;;;;;7.97;2.38;;;;;;;0.81;75.17;97441.66;5983888;23;20035;-67
2022/04/03 07:11:52;;;;;;;7.75;2.83;;;;;;;1.02;74.50;97457.38;5986078;23;20027;-62
2022/04/03 07:14:17;;;;;;;8.90;3.05;;;;;;;0.83;74.93;97464.44;6033100;23;20027;-70
2022/04/03 07:16:43;;;;;;;8.23;2.35;;;;;;;1.01;74.16;97475.16;6008362;23;20326;-66
2022/04/03 07:19:10;;;;;;;12.43;2.90;;;;;;;0.94;74.17;97464.25;5984691;23;20113;-68
2022/04/03 07:21:37;;;;;;;8.10;2.92;;;;;;;0.81;75.08;97470.91;5985885;23;20104;-66
2022/04/03 07:24:04;;;;;;;8.88;2.65;;;;;;;0.83;73.58;97480.41;6008795;23;20035;-65
2022/04/03 07:26:31;;;;;;;8.95;2.58;;;;;;;0.91;73.78;97485.00;5984618;23;20427;-64
2022/04/03 07:28:57;;;;;;;8.55;2.92;;;;;;;1.06;72.68;97486.25;6008054;23;20106;-66
2022/04/03 07:31:23;;;;;;;7.80;2.33;;;;;;;1.11;73.51;97483.97;5984885;23;20064;-65
2022/04/03 07:33:49;;;;;;;8.45;2.40;;;;;;;0.85;72.55;97488.25;5984191;23;20027;-65
2022/04/03 07:36:16;;;;;;;10.18;2.83;;;;;;;0.81;73.74;97492.19;5962874;23;20030;-64
2022/04/03 07:38:42;;;;;;;8.98;2.63;;;;;;;0.83;74.88;97507.00;6034490;23;20050;-64
2022/04/03 07:41:08;;;;;;;8.20;3.15;;;;;;;0.60;75.01;97500.31;6008270;23;20357;-64
2022/04/03 07:43:34;;;;;;;8.07;2.70;;;;;;;0.63;75.31;97494.72;5984722;23;20441;-65
2022/04/03 07:45:59;;;;;;;9.48;3.00;;;;;;;0.48;75.45;97512.94;6008170;23;20027;-64
2022/04/03 07:48:25;;;;;;;10.48;3.33;;;;;;;0.14;75.48;97484.09;5985466;23;20201;-65
2022/04/03 07:50:51;;;;;;;9.27;3.03;;;;;;;0.18;76.08;97496.16;6012429;23;20118;-66
2022/04/03 07:53:18;;;;;;;9.68;3.38;;;;;;;0.15;75.59;97519.50;6036428;23;20413;-66
2022/04/03 07:55:44;;;;;;;9.05;3.08;;;;;;;-0.02;75.66;97526.31;6012385;23;20022;-66
2022/04/03 07:58:10;;;;;;;8.52;3.10;;;;;;;-0.07;74.87;97533.88;5991078;23;20045;-66
2022/04/03 08:00:36;;;;;;;6.78;2.63;;;;;;;0.28;75.70;97537.81;5991244;23;20288;-65
2022/04/03 08:03:02;;;;;;;8.65;3.40;;;;;;;0.28;75.67;97548.44;6037745;23;20027;-65
2022/04/03 08:05:27;;;;;;;8.55;3.55;;;;;;;0.40;76.86;97547.31;5990776;23;20090;-66
2022/04/03 08:07:55;;;;;;;8.23;3.03;;;;;;;0.54;75.45;97546.91;6014875;23;20074;-65
2022/04/03 08:10:21;;;;;;;7.75;2.67;;;;;;;0.57;74.98;97553.78;6014658;23;20075;-65
2022/04/03 08:12:49;;;;;;;9.77;3.10;;;;;;;0.39;73.68;97551.81;6061714;23;20027;-66
2022/04/03 08:15:18;;;;;;;9.15;3.50;;;;;;;0.53;74.79;97558.53;6037415;23;20330;-65
2022/04/03 08:17:44;;;;;;;9.07;3.85;;;;;;;0.57;75.62;97565.25;6038409;23;20089;-66
2022/04/03 08:20:17;;;;;;;9.13;3.83;;;;;;;0.53;74.62;97569.16;5991039;23;20027;-67
2022/04/03 08:22:45;;;;;;;13.05;4.15;;;;;;;0.29;73.88;97566.06;6064577;23;20023;-66
2022/04/03 08:25:12;;;;;;;10.07;3.72;;;;;;;0.67;72.72;97581.22;6038009;23;20038;-65
2022/04/03 08:27:45;;;;;;;8.73;3.17;;;;;;;0.60;73.97;97580.09;6038423;23;20029;-65
2022/04/03 08:30:22;;;;;;;10.15;4.20;;;;;;;0.58;73.74;97552.78;6037742;23;20026;-66
2022/04/03 08:32:49;;;;;;;10.32;4.00;;;;;;;0.90;72.76;97582.56;5968109;23;20023;-65
2022/04/03 08:35:16;;;;;;;11.27;4.05;;;;;;;1.09;70.86;97584.38;6037531;23;20030;-64
2022/04/03 08:37:44;;;;;;;8.93;3.38;;;;;;;0.95;71.47;97587.47;6038302;23;20400;-65
2022/04/03 08:40:10;;;;;;;8.95;3.90;;;;;;;0.92;72.38;97580.63;6014104;23;20410;-66
2022/04/03 08:42:37;;;;;;;8.70;3.40;;;;;;;0.66;71.21;97585.69;6038123;23;20018;-65
2022/04/03 08:45:05;;;;;;;8.90;3.58;;;;;;;0.83;70.19;97589.44;5990427;23;20038;-65
2022/04/03 08:47:31;;;;;;;9.85;3.97;;;;;;;0.99;72.06;97590.69;6038133;23;20030;-65
2022/04/03 08:50:00;;;;;;;8.75;2.72;;;;;;;0.92;71.04;97593.09;6013313;23;20113;-65
2022/04/03 08:52:31;;;;;;;13.15;4.15;;;;;;;0.97;69.42;97598.81;6013993;23;20045;-65
2022/04/03 08:55:06;;;;;;;10.38;4.93;;;;;;;1.25;67.80;97590.94;5068923;28;20446;-67
2022/04/03 08:57:32;;;;;;;12.52;4.20;;;;;;;1.58;68.08;97602.91;5051886;28;20051;-69
2022/04/03 09:00:00;;;;;;;11.57;4.10;;;;;;;1.70;65.69;97601.72;5042212;28;20055;-67
2022/04/03 09:02:26;;;;;;;10.23;4.78;;;;;;;2.34;65.40;97595.50;5085114;28;20119;-67
2022/04/03 09:04:52;;;;;;;8.85;3.65;;;;;;;2.60;64.40;97597.44;5078007;28;20134;-67
2022/04/03 09:07:19;;;;;;;12.90;4.53;;;;;;;2.37;64.51;97607.69;5022636;28;20080;-68
2022/04/03 09:09:47;;;;;;;9.80;4.50;;;;;;;2.50;63.37;97610.84;5075095;28;20052;-68
2022/04/03 09:12:18;;;;;;;11.27;4.45;;;;;;;3.00;63.86;97617.44;5050358;28;20174;-67
2022/04/03 09:14:49;;;;;;;10.80;4.25;;;;;;;2.98;63.30;97612.28;5070867;28;20142;-67
2022/04/03 09:17:38;;;;;;;11.63;4.82;;;;;;;3.48;62.57;97610.84;5068689;28;20051;-71
2022/04/03 09:20:10;;;;;;;11.57;4.43;;;;;;;3.89;58.88;97617.25;5041561;28;20059;-67
2022/04/03 09:22:37;;;;;;;9.88;4.10;;;;;;;3.75;59.02;97623.19;5057007;28;20044;-68
2022/04/03 09:25:05;;;;;;;9.27;4.22;;;;;;;3.93;58.70;97621.28;5030301;28;20041;-68
2022/04/03 09:27:35;;;;;;;12.13;4.57;;;;;;;3.74;58.26;97621.50;5033199;28;20079;-68
2022/04/03 09:30:10;;;;;;;12.85;4.82;;;;;;;5.22;55.26;97624.44;5050363;28;20135;-68
2022/04/03 09:32:46;;;;;;;16.92;4.95;;;;;;;5.19;55.03;97608.72;5036295;28;20055;-69
2022/04/03 09:35:13;;;;;;;12.35;5.20;;;;;;;6.63;52.09;97630.13;5038177;28;20041;-68
2022/04/03 09:37:39;;;;;;;11.60;4.95;;;;;;;7.91;49.48;97635.69;5038799;28;20044;-70
2022/04/03 09:40:06;;;;;;;12.15;4.95;;;;;;;7.87;48.26;97634.38;5026370;28;20037;-64
2022/04/03 09:42:31;;;;;;;9.32;4.78;;;;;;;7.48;46.34;97648.84;5019640;28;20123;-65
2022/04/03 09:44:57;;;;;;;10.48;4.50;;;;;;;7.83;45.39;97654.59;5009799;28;20045;-65
2022/04/03 09:47:26;;;;;;;10.02;4.65;;;;;;;7.53;45.45;97642.91;5052002;28;20126;-66
2022/04/03 09:49:57;;;;;;;10.13;4.53;;;;;;;8.09;44.69;97661.41;5057599;28;20185;-66
2022/04/03 09:52:39;;;;;;;10.07;4.38;;;;;;;8.72;43.81;97659.16;5029527;28;20743;-66
2022/04/03 09:55:20;;;;;;;10.23;4.68;;;;;;;8.53;45.40;97661.41;5058064;28;20262;-67
2022/04/03 09:57:47;;;;;;;9.30;4.00;;;;;;;7.88;43.43;97660.25;5020731;28;20054;-67
2022/04/03 10:00:33;;;;;;;11.02;4.50;;;;;;;8.13;44.70;97665.38;5041051;28;20490;-65
2022/04/03 10:03:02;;;;;;;9.63;3.95;;;;;;;8.11;44.29;97670.94;5036528;28;20070;-67
2022/04/03 10:05:33;;;;;;;8.77;4.55;;;;;;;7.46;43.90;97669.72;5042400;28;20116;-67
2022/04/03 10:08:01;;;;;;;9.65;4.50;;;;;;;8.47;43.58;97666.72;5036067;28;20049;-66
2022/04/03 10:10:28;;;;;;;9.25;4.13;;;;;;;7.78;45.22;97662.34;5068450;28;20354;-66
2022/04/03 10:12:58;;;;;;;10.45;5.03;;;;;;;8.99;43.22;97660.31;5019157;28;20167;-66
2022/04/03 10:15:24;;;;;;;10.98;4.25;;;;;;;7.70;43.86;97665.13;5034427;28;20044;-66
2022/04/03 10:17:50;;;;;;;9.27;4.47;;;;;;;8.02;44.88;97671.22;5034206;28;20055;-66
2022/04/03 10:20:16;;;;;;;10.13;4.55;;;;;;;8.78;44.78;97670.03;5048940;28;20247;-66
2022/04/03 10:22:46;;;;;;;8.77;3.70;;;;;;;7.74;46.17;97671.81;5016656;28;20076;-66
2022/04/03 10:25:15;;;;;;;10.15;4.20;;;;;;;8.10;45.71;97671.13;5047049;28;20032;-66
2022/04/03 10:27:43;;;;;;;9.00;3.97;;;;;;;8.48;43.46;97668.38;5035667;28;20072;-67
2022/04/03 10:30:13;;;;;;;9.15;3.95;;;;;;;7.80;43.51;97671.09;5048724;28;20089;-67
2022/04/03 10:32:40;;;;;;;10.35;3.63;;;;;;;8.24;42.84;97678.38;5035516;28;20088;-66
2022/04/03 10:35:10;;;;;;;8.55;3.78;;;;;;;8.22;41.64;97681.25;5032538;28;20130;-67
2022/04/03 10:37:39;;;;;;;8.70;4.15;;;;;;;8.00;43.91;97681.31;5013324;28;20136;-67
2022/04/03 10:40:07;;;;;;;10.13;4.15;;;;;;;7.67;45.82;97689.69;5031975;28;20090;-67
2022/04/03 10:42:33;;;;;;;8.50;3.35;;;;;;;7.22;44.67;97689.53;5019304;28;20385;-66
2022/04/03 10:45:11;;;;;;;8.05;3.60;;;;;;;6.46;46.10;97701.00;5056889;28;20049;-68
2022/04/03 10:47:42;;;;;;;15.13;5.13;;;;;;;5.26;48.80;97690.06;5068514;28;20044;-66
2022/04/03 10:50:21;;;;;;;9.80;4.75;;;;;;;5.24;49.39;97696.59;5024860;28;20139;-66
2022/04/03 10:52:46;;;;;;;9.18;3.55;;;;;;;6.38;46.52;97688.44;5034683;28;20364;-67
2022/04/03 10:55:28;;;;;;;8.18;3.67;;;;;;;6.74;45.83;97710.28;5031877;28;20139;-66
2022/04/03 10:58:06;;;;;;;8.77;3.28;;;;;;;7.23;44.13;97709.19;5068667;28;20107;-66
2022/04/03 11:00:35;;;;;;;8.57;3.20;;;;;;;6.21;46.11;97694.88;5001200;28;20131;-66
2022/04/03 11:03:21;;;;;;;9.73;3.78;;;;;;;6.88;45.88;97719.47;5030967;28;20052;-67
2022/04/03 11:05:47;;;;;;;9.88;4.07;;;;;;;6.92;46.03;97723.47;5055733;28;20124;-66
2022/04/03 11:08:13;;;;;;;10.32;3.67;;;;;;;6.72;47.31;97706.09;5034020;28;20139;-67
2022/04/03 11:10:56;;;;;;;11.13;3.65;;;;;;;6.92;45.89;97728.84;5050702;28;20135;-66
2022/04/03 11:13:42;;;;;;;7.20;3.10;;;;;;;6.77;46.01;97733.28;5031493;28;20044;-66
2022/04/03 11:16:09;;;;;;;7.78;3.40;;;;;;;6.43;46.80;97739.75;5009864;28;20041;-67
2022/04/03 11:18:45;;;;;;;8.88;3.63;;;;;;;6.62;45.62;97726.94;5034033;28;20186;-67
2022/04/03 11:21:11;;;;;;;9.27;3.38;;;;;;;7.05;45.04;97746.22;5005427;28;20045;-67
2022/04/03 11:23:43;;;;;;;8.80;2.92;;;;;;;7.00;44.49;97744.06;5048621;28;20445;-66
2022/04/03 11:26:09;;;;;;;9.20;3.70;;;;;;;6.63;45.82;97740.22;5067987;28;20492;-66
2022/04/03 11:28:35;;;;;;;8.52;3.70;;;;;;;6.07;47.34;97741.16;5029895;28;20040;-66
2022/04/03 11:31:01;;;;;;;8.68;3.47;;;;;;;6.27;47.70;97745.19;5050990;28;20043;-67
2022/04/03 11:33:29;;;;;;;7.85;3.42;;;;;;;6.55;46.77;97745.63;5047797;28;20527;-66
2022/04/03 11:35:56;;;;;;;9.13;3.78;;;;;;;6.38;47.13;97744.81;5033088;28;20183;-66